createdAt,value
2017-05-01T00:00:19.828Z,1011.67
2017-05-01T00:01:32.355Z,1011.71
2017-05-01T00:02:44.591Z,1011.7
2017-05-01T00:03:56.813Z,1011.77
2017-05-01T00:05:09.380Z,1011.73
2017-05-01T00:06:21.907Z,1011.69
2017-05-01T00:07:33.883Z,1011.73
2017-05-01T00:08:46.446Z,1011.65
2017-05-01T00:09:58.966Z,1011.72
2017-05-01T00:11:10.917Z,1011.66
2017-05-01T00:12:23.155Z,1011.63
2017-05-01T00:13:35.686Z,1011.66
2017-05-01T00:14:48.234Z,1011.65
2017-05-01T00:16:00.478Z,1011.66
2017-05-01T00:17:13.265Z,1011.62
2017-05-01T00:18:25.813Z,1011.64
2017-05-01T00:19:38.343Z,1011.57
2017-05-01T00:20:50.880Z,1011.58
2017-05-01T00:22:03.108Z,1011.57
2017-05-01T00:23:15.043Z,1011.57
2017-05-01T00:24:27.589Z,1011.56
2017-05-01T00:25:40.119Z,1011.56
2017-05-01T00:26:52.652Z,1011.51
2017-05-01T00:28:05.202Z,1011.5
2017-05-01T00:29:17.427Z,1011.48
2017-05-01T00:30:29.947Z,1011.43
2017-05-01T00:31:42.189Z,1011.52
2017-05-01T00:32:54.397Z,1011.45
2017-05-01T00:34:06.944Z,1011.45
2017-05-01T00:35:19.186Z,1011.52
2017-05-01T00:36:31.727Z,1011.48
2017-05-01T00:37:43.941Z,1011.43
2017-05-01T00:38:56.462Z,1011.44
2017-05-01T00:40:08.982Z,1011.4
2017-05-01T00:41:21.490Z,1011.4
2017-05-01T00:42:33.731Z,1011.39
2017-05-01T00:43:45.957Z,1011.38
2017-05-01T00:44:58.484Z,1011.38
2017-05-01T00:46:10.712Z,1011.33
2017-05-01T00:47:22.945Z,1011.35
2017-05-01T00:48:35.464Z,1011.29
2017-05-01T00:49:47.990Z,1011.35
2017-05-01T00:51:00.508Z,1011.39
2017-05-01T00:52:12.999Z,1011.39
2017-05-01T00:53:25.517Z,1011.36
2017-05-01T00:54:38.041Z,1011.29
2017-05-01T00:55:50.564Z,1011.33
2017-05-01T00:57:03.120Z,1011.31
2017-05-01T00:58:15.648Z,1011.3
2017-05-01T00:59:28.180Z,1011.33
2017-05-01T01:00:40.403Z,1011.26
2017-05-01T01:01:52.946Z,1011.29
2017-05-01T01:03:05.483Z,1011.31
2017-05-01T01:04:17.730Z,1011.32
2017-05-01T01:05:30.275Z,1011.26
2017-05-01T01:06:42.831Z,1011.28
2017-05-01T01:07:55.377Z,1011.28
2017-05-01T01:09:07.895Z,1011.29
2017-05-01T01:10:19.817Z,1011.22
2017-05-01T01:11:32.337Z,1011.25
2017-05-01T01:12:44.851Z,1011.28
2017-05-01T01:13:57.397Z,1011.24
2017-05-01T01:15:09.614Z,1011.31
2017-05-01T01:16:21.838Z,1011.25
2017-05-01T01:17:34.366Z,1011.23
2017-05-01T01:18:46.584Z,1011.21
2017-05-01T01:19:59.109Z,1011.22
2017-05-01T01:21:11.350Z,1011.22
2017-05-01T01:22:24.118Z,1011.23
2017-05-01T01:23:36.638Z,1011.19
2017-05-01T01:24:49.192Z,1011.17
2017-05-01T01:26:01.734Z,1011.16
2017-05-01T01:27:14.255Z,1011.19
2017-05-01T01:28:26.476Z,1011.18
2017-05-01T01:29:39.002Z,1011.17
2017-05-01T01:30:51.546Z,1011.11
2017-05-01T01:32:04.092Z,1011.15
2017-05-01T01:33:16.332Z,1011.06
2017-05-01T01:34:28.837Z,1011.14
2017-05-01T01:35:41.349Z,1011.07
2017-05-01T01:36:53.875Z,1011.03
2017-05-01T01:38:06.414Z,1011.05
2017-05-01T01:39:18.656Z,1011.01
2017-05-01T01:40:30.877Z,1011.05
2017-05-01T01:41:43.407Z,1011.01
2017-05-01T01:42:55.948Z,1011.03
2017-05-01T01:44:08.794Z,1010.99
2017-05-01T01:45:21.291Z,1011.08
2017-05-01T01:46:33.815Z,1011.03
2017-05-01T01:47:46.383Z,1011.03
2017-05-01T01:48:58.911Z,1011.01
2017-05-01T01:50:11.452Z,1011.04
2017-05-01T01:51:23.978Z,1011.04
2017-05-01T01:52:36.515Z,1011.03
2017-05-01T01:53:49.068Z,1010.98
2017-05-01T01:55:01.589Z,1010.92
2017-05-01T01:56:14.114Z,1010.92
2017-05-01T01:57:26.628Z,1010.93
2017-05-01T01:58:39.158Z,1010.91
2017-05-01T01:59:51.727Z,1010.94
2017-05-01T02:01:04.269Z,1010.93
2017-05-01T02:02:16.829Z,1010.95
2017-05-01T02:03:29.353Z,1010.94
2017-05-01T02:04:41.899Z,1011.01
2017-05-01T02:05:54.405Z,1010.98
2017-05-01T02:07:06.950Z,1010.94
2017-05-01T02:08:19.494Z,1010.92
2017-05-01T02:09:31.733Z,1010.89
2017-05-01T02:10:44.285Z,1010.9
2017-05-01T02:11:56.525Z,1010.88
2017-05-01T02:13:08.750Z,1010.87
2017-05-01T02:14:21.296Z,1010.83
2017-05-01T02:15:33.821Z,1010.86
2017-05-01T02:16:46.611Z,1010.77
2017-05-01T02:17:59.162Z,1010.84
2017-05-01T02:19:11.701Z,1010.83
2017-05-01T02:20:24.252Z,1010.78
2017-05-01T02:21:36.499Z,1010.74
2017-05-01T02:22:49.046Z,1010.78
2017-05-01T02:24:01.592Z,1010.76
2017-05-01T02:25:14.113Z,1010.69
2017-05-01T02:26:26.625Z,1010.67
2017-05-01T02:27:39.151Z,1010.71
2017-05-01T02:28:51.673Z,1010.65
2017-05-01T02:30:04.192Z,1010.64
2017-05-01T02:31:16.409Z,1010.58
2017-05-01T02:32:28.959Z,1010.58
2017-05-01T02:33:41.197Z,1010.62
2017-05-01T02:34:53.701Z,1010.56
2017-05-01T02:36:06.265Z,1010.58
2017-05-01T02:37:18.796Z,1010.51
2017-05-01T02:38:31.620Z,1010.5
2017-05-01T02:39:43.863Z,1010.54
2017-05-01T02:40:56.405Z,1010.49
2017-05-01T02:42:08.922Z,1010.44
2017-05-01T02:43:21.433Z,1010.45
2017-05-01T02:44:33.961Z,1010.49
2017-05-01T02:45:46.466Z,1010.48
2017-05-01T02:46:58.981Z,1010.45
2017-05-01T02:48:11.506Z,1010.43
2017-05-01T02:49:24.254Z,1010.43
2017-05-01T02:50:36.465Z,1010.44
2017-05-01T02:51:48.975Z,1010.45
2017-05-01T02:53:01.568Z,1010.39
2017-05-01T02:54:14.091Z,1010.38
2017-05-01T02:55:26.636Z,1010.36
2017-05-01T02:56:39.136Z,1010.35
2017-05-01T02:57:51.674Z,1010.27
2017-05-01T02:59:03.897Z,1010.25
2017-05-01T03:00:16.696Z,1010.25
2017-05-01T03:01:29.285Z,1010.26
2017-05-01T03:02:41.798Z,1010.19
2017-05-01T03:03:54.328Z,1010.21
2017-05-01T03:05:06.849Z,1010.18
2017-05-01T03:06:19.372Z,1010.16
2017-05-01T03:07:31.891Z,1010.1
2017-05-01T03:08:44.113Z,1010.14
2017-05-01T03:09:56.604Z,1010.1
2017-05-01T03:11:09.156Z,1010.12
2017-05-01T03:12:21.692Z,1010.12
2017-05-01T03:13:34.198Z,1010.09
2017-05-01T03:14:46.741Z,1010.18
2017-05-01T03:15:59.290Z,1010.13
2017-05-01T03:17:11.237Z,1010.18
2017-05-01T03:18:22.860Z,1010.1
2017-05-01T03:19:35.367Z,1010.12
2017-05-01T03:20:47.873Z,1010.09
2017-05-01T03:22:00.667Z,1010.06
2017-05-01T03:23:12.611Z,1010.04
2017-05-01T03:24:24.852Z,1010.05
2017-05-01T03:25:36.796Z,1009.96
2017-05-01T03:26:49.343Z,1010.06
2017-05-01T03:28:01.848Z,1010.06
2017-05-01T03:29:14.073Z,1010.07
2017-05-01T03:30:26.593Z,1009.96
2017-05-01T03:31:38.775Z,1009.97
2017-05-01T03:32:51.004Z,1009.94
2017-05-01T03:34:03.518Z,1009.99
2017-05-01T03:35:16.022Z,1009.87
2017-05-01T03:36:28.242Z,1010.01
2017-05-01T03:37:40.767Z,1009.99
2017-05-01T03:38:52.993Z,1010.02
2017-05-01T03:40:05.552Z,1009.99
2017-05-01T03:41:17.777Z,1010.1
2017-05-01T03:42:30.275Z,1009.99
2017-05-01T03:43:42.497Z,1010.07
2017-05-01T03:44:54.740Z,1010.06
2017-05-01T03:46:07.264Z,1010.02
2017-05-01T03:47:19.497Z,1010.02
2017-05-01T03:48:31.723Z,1010
2017-05-01T03:49:44.247Z,1010.06
2017-05-01T03:50:56.772Z,1010
2017-05-01T03:52:09.312Z,1010.02
2017-05-01T03:53:21.839Z,1010.02
2017-05-01T03:54:34.381Z,1010.01
2017-05-01T03:55:46.910Z,1010.09
2017-05-01T03:56:59.452Z,1009.98
2017-05-01T03:58:11.690Z,1009.97
2017-05-01T03:59:24.197Z,1010.02
2017-05-01T04:00:36.738Z,1009.95
2017-05-01T04:01:48.981Z,1010.05
2017-05-01T04:03:01.502Z,1009.99
2017-05-01T04:04:13.741Z,1009.99
2017-05-01T04:05:26.266Z,1009.94
2017-05-01T04:06:38.795Z,1010.1
2017-05-01T04:07:51.040Z,1009.94
2017-05-01T04:09:03.610Z,1009.97
2017-05-01T04:10:15.828Z,1010.05
2017-05-01T04:11:28.029Z,1009.97
2017-05-01T04:12:40.550Z,1010.01
2017-05-01T04:13:53.091Z,1009.94
2017-05-01T04:15:05.611Z,1010
2017-05-01T04:16:18.133Z,1010.02
2017-05-01T04:17:30.678Z,1009.99
2017-05-01T04:18:42.899Z,1009.95
2017-05-01T04:19:55.413Z,1010.06
2017-05-01T04:21:07.933Z,1010.01
2017-05-01T04:22:20.165Z,1010.06
2017-05-01T04:23:32.700Z,1010.07
2017-05-01T04:24:44.958Z,1010.14
2017-05-01T04:25:57.483Z,1010.1
2017-05-01T04:27:10.002Z,1010.06
2017-05-01T04:28:22.238Z,1010.07
2017-05-01T04:29:34.787Z,1010.13
2017-05-01T04:30:46.676Z,1010.06
2017-05-01T04:31:58.884Z,1010.11
2017-05-01T04:33:11.100Z,1010.05
2017-05-01T04:34:23.625Z,1010.1
2017-05-01T04:35:36.167Z,1010.09
2017-05-01T04:36:48.663Z,1010.07
2017-05-01T04:38:00.883Z,1010.01
2017-05-01T04:39:13.098Z,1010.13
2017-05-01T04:40:25.625Z,1010.13
2017-05-01T04:41:38.147Z,1010.19
2017-05-01T04:42:50.667Z,1010.17
2017-05-01T04:44:03.460Z,1010.15
2017-05-01T04:45:15.731Z,1010.21
2017-05-01T04:46:28.279Z,1010.17
2017-05-01T04:47:40.801Z,1010.14
2017-05-01T04:48:53.047Z,1010.14
2017-05-01T04:50:05.564Z,1010.15
2017-05-01T04:51:17.814Z,1010.14
2017-05-01T04:52:30.027Z,1010.16
2017-05-01T04:53:42.548Z,1010.14
2017-05-01T04:54:55.081Z,1010.23
2017-05-01T04:56:07.626Z,1010.18
2017-05-01T04:57:19.827Z,1010.18
2017-05-01T04:58:32.386Z,1010.15
2017-05-01T04:59:45.186Z,1010.18
2017-05-01T05:00:57.710Z,1010.18
2017-05-01T05:02:09.927Z,1010.14
2017-05-01T05:03:22.152Z,1010.15
2017-05-01T05:04:34.648Z,1010.16
2017-05-01T05:05:46.892Z,1010.15
2017-05-01T05:06:59.428Z,1010.17
2017-05-01T05:08:11.942Z,1010.18
2017-05-01T05:09:24.170Z,1010.22
2017-05-01T05:10:36.380Z,1010.22
2017-05-01T05:11:48.901Z,1010.19
2017-05-01T05:13:01.416Z,1010.2
2017-05-01T05:14:13.311Z,1010.22
2017-05-01T05:15:25.836Z,1010.19
2017-05-01T05:16:38.391Z,1010.21
2017-05-01T05:17:50.926Z,1010.19
2017-05-01T05:19:03.174Z,1010.2
2017-05-01T05:20:15.734Z,1010.21
2017-05-01T05:21:28.243Z,1010.29
2017-05-01T05:22:40.478Z,1010.27
2017-05-01T05:23:53.011Z,1010.29
2017-05-01T05:25:05.549Z,1010.3
2017-05-01T05:26:18.070Z,1010.28
2017-05-01T05:27:30.591Z,1010.3
2017-05-01T05:28:43.123Z,1010.3
2017-05-01T05:29:55.354Z,1010.3
2017-05-01T05:31:07.648Z,1010.33
2017-05-01T05:32:19.904Z,1010.3
2017-05-01T05:33:32.450Z,1010.31
2017-05-01T05:34:44.720Z,1010.31
2017-05-01T05:35:56.966Z,1010.33
2017-05-01T05:37:09.480Z,1010.29
2017-05-01T05:38:21.708Z,1010.27
2017-05-01T05:39:34.251Z,1010.3
2017-05-01T05:40:46.776Z,1010.38
2017-05-01T05:41:59.268Z,1010.34
2017-05-01T05:43:11.809Z,1010.44
2017-05-01T05:44:24.363Z,1010.42
2017-05-01T05:45:36.904Z,1010.42
2017-05-01T05:46:49.405Z,1010.46
2017-05-01T05:48:01.914Z,1010.39
2017-05-01T05:49:14.464Z,1010.35
2017-05-01T05:50:26.993Z,1010.38
2017-05-01T05:51:39.481Z,1010.4
2017-05-01T05:52:52.006Z,1010.39
2017-05-01T05:54:04.826Z,1010.41
2017-05-01T05:55:17.372Z,1010.42
2017-05-01T05:56:29.927Z,1010.41
2017-05-01T05:57:42.443Z,1010.49
2017-05-01T05:58:55.012Z,1010.44
2017-05-01T06:00:07.256Z,1010.37
2017-05-01T06:01:19.197Z,1010.33
2017-05-01T06:02:31.741Z,1010.41
2017-05-01T06:03:44.265Z,1010.43
2017-05-01T06:04:56.484Z,1010.43
2017-05-01T06:06:09.016Z,1010.43
2017-05-01T06:07:21.538Z,1010.41
2017-05-01T06:08:33.778Z,1010.4
2017-05-01T06:09:45.998Z,1010.35
2017-05-01T06:10:58.536Z,1010.38
2017-05-01T06:12:11.069Z,1010.37
2017-05-01T06:13:23.589Z,1010.36
2017-05-01T06:14:36.132Z,1010.41
2017-05-01T06:15:48.652Z,1010.46
2017-05-01T06:17:00.880Z,1010.43
2017-05-01T06:18:13.419Z,1010.41
2017-05-01T06:19:25.943Z,1010.43
2017-05-01T06:20:38.461Z,1010.44
2017-05-01T06:21:50.981Z,1010.37
2017-05-01T06:23:03.220Z,1010.42
2017-05-01T06:24:15.750Z,1010.4
2017-05-01T06:25:28.295Z,1010.39
2017-05-01T06:26:40.844Z,1010.42
2017-05-01T06:27:53.089Z,1010.53
2017-05-01T06:29:05.361Z,1010.48
2017-05-01T06:30:17.579Z,1010.36
2017-05-01T06:31:30.101Z,1010.46
2017-05-01T06:32:42.663Z,1010.53
2017-05-01T06:33:54.893Z,1010.47
2017-05-01T06:35:07.113Z,1010.49
2017-05-01T06:36:19.611Z,1010.44
2017-05-01T06:37:32.134Z,1010.4
2017-05-01T06:38:44.375Z,1010.49
2017-05-01T06:39:56.901Z,1010.47
2017-05-01T06:41:09.449Z,1010.47
2017-05-01T06:42:21.987Z,1010.51
2017-05-01T06:43:34.508Z,1010.54
2017-05-01T06:44:47.034Z,1010.55
2017-05-01T06:45:59.578Z,1010.57
2017-05-01T06:47:11.816Z,1010.58
2017-05-01T06:48:24.060Z,1010.58
2017-05-01T06:49:36.591Z,1010.63
2017-05-01T06:50:49.134Z,1010.56
2017-05-01T06:52:01.696Z,1010.59
2017-05-01T06:53:14.231Z,1010.55
2017-05-01T06:54:26.790Z,1010.58
2017-05-01T06:55:39.292Z,1010.63
2017-05-01T06:56:51.817Z,1010.63
2017-05-01T06:58:04.337Z,1010.6
2017-05-01T06:59:16.884Z,1010.57
2017-05-01T07:00:29.129Z,1010.55
2017-05-01T07:01:41.676Z,1010.53
2017-05-01T07:02:54.223Z,1010.55
2017-05-01T07:04:06.781Z,1010.54
2017-05-01T07:05:19.011Z,1010.59
2017-05-01T07:06:31.547Z,1010.58
2017-05-01T07:07:44.082Z,1010.52
2017-05-01T07:08:56.672Z,1010.52
2017-05-01T07:10:09.197Z,1010.49
2017-05-01T07:11:21.443Z,1010.49
2017-05-01T07:12:33.986Z,1010.52
2017-05-01T07:13:46.535Z,1010.5
2017-05-01T07:14:58.782Z,1010.55
2017-05-01T07:16:11.351Z,1010.53
2017-05-01T07:17:23.572Z,1010.48
2017-05-01T07:18:35.769Z,1010.55
2017-05-01T07:19:48.018Z,1010.54
2017-05-01T07:20:59.961Z,1010.45
2017-05-01T07:22:12.226Z,1010.5
2017-05-01T07:23:24.450Z,1010.5
2017-05-01T07:24:36.976Z,1010.47
2017-05-01T07:25:49.518Z,1010.51
2017-05-01T07:27:02.056Z,1010.43
2017-05-01T07:28:14.607Z,1010.49
2017-05-01T07:29:27.159Z,1010.53
2017-05-01T07:30:39.399Z,1010.43
2017-05-01T07:31:52.174Z,1010.47
2017-05-01T07:33:04.742Z,1010.49
2017-05-01T07:34:17.290Z,1010.4
2017-05-01T07:35:29.850Z,1010.4
2017-05-01T07:36:42.381Z,1010.42
2017-05-01T07:37:54.645Z,1010.36
2017-05-01T07:39:06.875Z,1010.26
2017-05-01T07:40:19.143Z,1010.28
2017-05-01T07:41:31.666Z,1010.34
2017-05-01T07:42:44.189Z,1010.31
2017-05-01T07:43:56.733Z,1010.34
2017-05-01T07:45:08.975Z,1010.23
2017-05-01T07:46:21.516Z,1010.27
2017-05-01T07:47:33.750Z,1010.26
2017-05-01T07:48:46.313Z,1010.29
2017-05-01T07:49:58.538Z,1010.12
2017-05-01T07:51:10.483Z,1010.1
2017-05-01T07:52:23.043Z,1010.11
2017-05-01T07:53:35.325Z,1010.1
2017-05-01T07:54:47.871Z,1010.02
2017-05-01T07:56:00.444Z,1010.08
2017-05-01T07:57:12.984Z,1010.04
2017-05-01T07:58:25.526Z,1010.17
2017-05-01T07:59:38.302Z,1010.06
2017-05-01T08:00:50.545Z,1010
2017-05-01T08:02:03.096Z,1009.99
2017-05-01T08:03:15.363Z,1010.1
2017-05-01T08:04:27.914Z,1010
2017-05-01T08:05:40.186Z,1009.98
2017-05-01T08:06:52.422Z,1010
2017-05-01T08:08:04.977Z,1009.92
2017-05-01T08:09:16.939Z,1010.03
2017-05-01T08:10:29.467Z,1010.01
2017-05-01T08:11:42.016Z,1009.97
2017-05-01T08:12:54.574Z,1010.07
2017-05-01T08:14:07.105Z,1010.03
2017-05-01T08:15:19.068Z,1009.97
2017-05-01T08:16:31.597Z,1009.93
2017-05-01T08:17:44.137Z,1009.97
2017-05-01T08:18:56.416Z,1010.06
2017-05-01T08:20:08.952Z,1010.13
2017-05-01T08:21:21.453Z,1009.99
2017-05-01T08:22:34.027Z,1010.07
2017-05-01T08:23:46.573Z,1010.13
2017-05-01T08:24:59.145Z,1010.08
2017-05-01T08:26:11.704Z,1010.04
2017-05-01T08:27:24.253Z,1010.05
2017-05-01T08:28:36.783Z,1010.08
2017-05-01T08:29:49.344Z,1010.02
2017-05-01T08:31:01.895Z,1010.14
2017-05-01T08:32:14.148Z,1010.23
2017-05-01T08:33:26.687Z,1010.17
2017-05-01T08:34:39.254Z,1010.14
2017-05-01T08:35:51.782Z,1010.08
2017-05-01T08:37:04.324Z,1010.03
2017-05-01T08:38:16.576Z,1010.04
2017-05-01T08:39:29.119Z,1010.13
2017-05-01T08:40:41.655Z,1010.1
2017-05-01T08:41:53.919Z,1010.1
2017-05-01T08:43:06.154Z,1010
2017-05-01T08:44:18.354Z,1010.09
2017-05-01T08:45:30.888Z,1010.01
2017-05-01T08:46:43.433Z,1009.93
2017-05-01T08:47:56.268Z,1009.94
2017-05-01T08:49:08.217Z,1009.97
2017-05-01T08:50:20.432Z,1009.96
2017-05-01T08:51:32.676Z,1009.96
2017-05-01T08:52:45.221Z,1009.86
2017-05-01T08:53:57.745Z,1009.78
2017-05-01T08:55:10.285Z,1009.9
2017-05-01T08:56:22.539Z,1009.81
2017-05-01T08:57:35.101Z,1009.83
2017-05-01T08:58:47.903Z,1009.85
2017-05-01T09:00:00.425Z,1009.79
2017-05-01T09:01:12.671Z,1009.8
2017-05-01T09:02:24.918Z,1009.76
2017-05-01T09:03:37.459Z,1009.76
2017-05-01T09:04:49.951Z,1009.76
2017-05-01T09:06:02.477Z,1009.68
2017-05-01T09:07:15.007Z,1009.64
2017-05-01T09:08:27.536Z,1009.62
2017-05-01T09:09:40.081Z,1009.66
2017-05-01T09:10:52.627Z,1009.69
2017-05-01T09:12:05.156Z,1009.68
2017-05-01T09:13:17.432Z,1009.69
2017-05-01T09:14:29.977Z,1009.7
2017-05-01T09:15:42.194Z,1009.69
2017-05-01T09:16:54.719Z,1009.76
2017-05-01T09:18:07.260Z,1009.69
2017-05-01T09:19:19.524Z,1009.65
2017-05-01T09:20:32.069Z,1009.65
2017-05-01T09:21:44.602Z,1009.71
2017-05-01T09:22:57.125Z,1009.5
2017-05-01T09:24:09.683Z,1009.69
2017-05-01T09:25:22.228Z,1009.69
2017-05-01T09:26:34.459Z,1009.69
2017-05-01T09:27:46.982Z,1009.63
2017-05-01T09:28:59.228Z,1009.63
2017-05-01T09:30:11.789Z,1009.75
2017-05-01T09:31:24.591Z,1009.63
2017-05-01T09:32:36.847Z,1009.6
2017-05-01T09:33:49.407Z,1009.64
2017-05-01T09:35:01.933Z,1009.61
2017-05-01T09:36:14.474Z,1009.55
2017-05-01T09:37:26.398Z,1009.53
2017-05-01T09:38:38.969Z,1009.52
2017-05-01T09:39:51.511Z,1009.54
2017-05-01T09:41:03.154Z,1009.59
2017-05-01T09:42:15.703Z,1009.47
2017-05-01T09:43:28.204Z,1009.46
2017-05-01T09:44:40.763Z,1009.48
2017-05-01T09:45:52.971Z,1009.48
2017-05-01T09:47:05.532Z,1009.42
2017-05-01T09:48:17.768Z,1009.49
2017-05-01T09:49:30.323Z,1009.48
2017-05-01T09:50:42.254Z,1009.46
2017-05-01T09:51:54.488Z,1009.44
2017-05-01T09:53:06.716Z,1009.39
2017-05-01T09:54:19.267Z,1009.45
2017-05-01T09:55:31.532Z,1009.47
2017-05-01T09:56:44.126Z,1009.48
2017-05-01T09:57:56.669Z,1009.55
2017-05-01T09:59:09.514Z,1009.56
2017-05-01T10:00:22.023Z,1009.45
2017-05-01T10:01:34.540Z,1009.43
2017-05-01T10:02:47.089Z,1009.47
2017-05-01T10:03:59.909Z,1009.49
2017-05-01T10:05:12.150Z,1009.49
2017-05-01T10:06:24.101Z,1009.48
2017-05-01T10:07:36.663Z,1009.45
2017-05-01T10:08:49.206Z,1009.49
2017-05-01T10:10:01.763Z,1009.46
2017-05-01T10:11:13.722Z,1009.51
2017-05-01T10:12:25.951Z,1009.48
2017-05-01T10:13:38.202Z,1009.46
2017-05-01T10:14:50.771Z,1009.49
2017-05-01T10:16:03.349Z,1009.6
2017-05-01T10:17:15.562Z,1009.47
2017-05-01T10:18:28.108Z,1009.51
2017-05-01T10:19:40.626Z,1009.46
2017-05-01T10:20:53.195Z,1009.49
2017-05-01T10:22:05.487Z,1009.49
2017-05-01T10:23:17.432Z,1009.44
2017-05-01T10:24:29.994Z,1009.45
2017-05-01T10:25:42.823Z,1009.46
2017-05-01T10:26:55.356Z,1009.48
2017-05-01T10:28:07.898Z,1009.55
2017-05-01T10:29:20.422Z,1009.44
2017-05-01T10:30:32.966Z,1009.41
2017-05-01T10:31:45.566Z,1009.49
2017-05-01T10:32:58.157Z,1009.48
2017-05-01T10:34:10.753Z,1009.53
2017-05-01T10:35:23.349Z,1009.46
2017-05-01T10:36:35.915Z,1009.53
2017-05-01T10:37:48.169Z,1009.52
2017-05-01T10:39:00.733Z,1009.45
2017-05-01T10:40:12.990Z,1009.48
2017-05-01T10:41:25.254Z,1009.6
2017-05-01T10:42:37.820Z,1009.65
2017-05-01T10:43:50.387Z,1009.51
2017-05-01T10:45:02.945Z,1009.55
2017-05-01T10:46:15.197Z,1009.73
2017-05-01T10:47:27.761Z,1009.56
2017-05-01T10:48:40.350Z,1009.63
2017-05-01T10:49:52.603Z,1009.59
2017-05-01T10:51:05.142Z,1009.48
2017-05-01T10:52:17.714Z,1009.51
2017-05-01T10:53:30.258Z,1009.43
2017-05-01T10:54:42.509Z,1009.58
2017-05-01T10:55:54.775Z,1009.42
2017-05-01T10:57:06.728Z,1009.43
2017-05-01T10:58:19.222Z,1009.63
2017-05-01T10:59:31.817Z,1009.47
2017-05-01T11:00:44.421Z,1009.55
2017-05-01T11:01:56.680Z,1009.65
2017-05-01T11:03:08.658Z,1009.5
2017-05-01T11:04:21.197Z,1009.63
2017-05-01T11:05:33.776Z,1009.53
2017-05-01T11:06:46.064Z,1009.56
2017-05-01T11:07:58.317Z,1009.61
2017-05-01T11:09:10.881Z,1009.66
2017-05-01T11:10:23.427Z,1009.7
2017-05-01T11:11:35.953Z,1009.75
2017-05-01T11:12:48.244Z,1009.68
2017-05-01T11:14:00.535Z,1009.66
2017-05-01T11:15:12.485Z,1009.45
2017-05-01T11:16:24.460Z,1009.6
2017-05-01T11:17:37.010Z,1009.63
2017-05-01T11:18:49.600Z,1009.57
2017-05-01T11:20:02.151Z,1009.81
2017-05-01T11:21:14.118Z,1009.56
2017-05-01T11:22:26.669Z,1009.71
2017-05-01T11:23:39.221Z,1009.58
2017-05-01T11:24:51.477Z,1009.5
2017-05-01T11:26:04.048Z,1009.41
2017-05-01T11:27:16.594Z,1009.48
2017-05-01T11:28:28.872Z,1009.32
2017-05-01T11:29:41.443Z,1009.46
2017-05-01T11:30:54.241Z,1009.67
2017-05-01T11:32:06.499Z,1009.4
2017-05-01T11:33:19.012Z,1009.57
2017-05-01T11:34:31.273Z,1009.53
2017-05-01T11:35:43.811Z,1009.51
2017-05-01T11:36:56.362Z,1009.45
2017-05-01T11:38:08.340Z,1009.51
2017-05-01T11:39:20.328Z,1009.38
2017-05-01T11:40:32.906Z,1009.39
2017-05-01T11:41:45.474Z,1009.53
2017-05-01T11:42:58.023Z,1009.65
2017-05-01T11:44:09.991Z,1009.74
2017-05-01T11:45:22.233Z,1009.72
2017-05-01T11:46:34.786Z,1009.55
2017-05-01T11:47:47.331Z,1009.44
2017-05-01T11:48:58.992Z,1009.5
2017-05-01T11:50:11.260Z,1009.61
2017-05-01T11:51:23.800Z,1009.58
2017-05-01T11:52:36.357Z,1009.61
2017-05-01T11:53:48.355Z,1009.52
2017-05-01T11:55:00.899Z,1009.45
2017-05-01T11:56:13.133Z,1009.58
2017-05-01T11:57:25.376Z,1009.56
2017-05-01T11:58:37.342Z,1009.51
2017-05-01T11:59:49.897Z,1009.45
2017-05-01T12:01:02.143Z,1009.48
2017-05-01T12:02:14.699Z,1009.66
2017-05-01T12:03:27.205Z,1009.48
2017-05-01T12:04:39.776Z,1009.53
2017-05-01T12:05:52.346Z,1009.53
2017-05-01T12:07:04.905Z,1009.5
2017-05-01T12:08:17.436Z,1009.38
2017-05-01T12:09:29.986Z,1009.36
2017-05-01T12:10:42.542Z,1009.64
2017-05-01T12:11:55.097Z,1009.56
2017-05-01T12:13:07.664Z,1009.51
2017-05-01T12:14:19.907Z,1009.49
2017-05-01T12:15:32.152Z,1009.38
2017-05-01T12:16:44.685Z,1009.47
2017-05-01T12:17:56.948Z,1009.34
2017-05-01T12:19:09.506Z,1009.32
2017-05-01T12:20:21.768Z,1009.32
2017-05-01T12:21:34.312Z,1009.31
2017-05-01T12:22:46.578Z,1009.35
2017-05-01T12:23:59.099Z,1009.37
2017-05-01T12:25:11.637Z,1009.37
2017-05-01T12:26:24.176Z,1009.47
2017-05-01T12:27:36.719Z,1009.56
2017-05-01T12:28:49.241Z,1009.37
2017-05-01T12:30:01.453Z,1009.53
2017-05-01T12:31:13.999Z,1009.44
2017-05-01T12:32:26.531Z,1009.43
2017-05-01T12:33:38.801Z,1009.33
2017-05-01T12:34:51.350Z,1009.53
2017-05-01T12:36:03.556Z,1009.59
2017-05-01T12:37:15.814Z,1009.6
2017-05-01T12:38:28.403Z,1009.61
2017-05-01T12:39:40.946Z,1009.53
2017-05-01T12:40:53.175Z,1009.57
2017-05-01T12:42:05.694Z,1009.53
2017-05-01T12:43:17.358Z,1009.56
2017-05-01T12:44:29.589Z,1009.46
2017-05-01T12:45:41.860Z,1009.45
2017-05-01T12:46:54.106Z,1009.47
2017-05-01T12:48:06.070Z,1009.41
2017-05-01T12:49:17.996Z,1009.33
2017-05-01T12:50:30.495Z,1009.36
2017-05-01T12:51:43.041Z,1009.32
2017-05-01T12:52:55.587Z,1009.25
2017-05-01T12:54:07.849Z,1009.39
2017-05-01T12:55:20.120Z,1009.38
2017-05-01T12:56:32.670Z,1009.36
2017-05-01T12:57:44.909Z,1009.29
2017-05-01T12:58:57.154Z,1009.32
2017-05-01T13:00:09.562Z,1009.31
2017-05-01T13:01:22.136Z,1009.37
2017-05-01T13:02:34.701Z,1009.19
2017-05-01T13:03:47.492Z,1009.34
2017-05-01T13:04:59.720Z,1009.38
2017-05-01T13:06:11.964Z,1009.36
2017-05-01T13:07:24.512Z,1009.52
2017-05-01T13:08:37.054Z,1009.66
2017-05-01T13:09:49.323Z,1009.54
2017-05-01T13:11:01.588Z,1009.62
2017-05-01T13:12:13.835Z,1009.57
2017-05-01T13:13:26.064Z,1009.55
2017-05-01T13:14:38.283Z,1009.53
2017-05-01T13:15:50.510Z,1009.55
2017-05-01T13:17:02.754Z,1009.56
2017-05-01T13:18:15.006Z,1009.59
2017-05-01T13:19:27.548Z,1009.38
2017-05-01T13:20:40.113Z,1009.41
2017-05-01T13:21:52.390Z,1009.47
2017-05-01T13:23:04.951Z,1009.41
2017-05-01T13:24:17.534Z,1009.43
2017-05-01T13:25:30.349Z,1009.53
2017-05-01T13:26:42.865Z,1009.52
2017-05-01T13:27:55.389Z,1009.53
2017-05-01T13:29:07.652Z,1009.57
2017-05-01T13:30:20.198Z,1009.54
2017-05-01T13:31:32.753Z,1009.58
2017-05-01T13:32:45.003Z,1009.65
2017-05-01T13:33:57.544Z,1009.7
2017-05-01T13:35:10.082Z,1009.67
2017-05-01T13:36:22.586Z,1009.6
2017-05-01T13:37:35.138Z,1009.65
2017-05-01T13:38:47.699Z,1009.66
2017-05-01T13:40:00.201Z,1009.58
2017-05-01T13:41:12.073Z,1009.55
2017-05-01T13:42:24.311Z,1009.66
2017-05-01T13:43:36.539Z,1009.61
2017-05-01T13:44:49.060Z,1009.62
2017-05-01T13:46:01.620Z,1009.61
2017-05-01T13:47:13.554Z,1009.61
2017-05-01T13:48:26.100Z,1009.58
2017-05-01T13:49:38.641Z,1009.66
2017-05-01T13:50:50.887Z,1009.6
2017-05-01T13:52:02.875Z,1009.52
2017-05-01T13:53:15.133Z,1009.47
2017-05-01T13:54:27.404Z,1009.54
2017-05-01T13:55:39.949Z,1009.72
2017-05-01T13:56:52.534Z,1009.52
2017-05-01T13:58:05.079Z,1009.49
2017-05-01T13:59:17.334Z,1009.53
2017-05-01T14:00:29.234Z,1009.54
2017-05-01T14:01:41.782Z,1009.56
2017-05-01T14:02:54.598Z,1009.51
2017-05-01T14:04:06.517Z,1009.44
2017-05-01T14:05:18.741Z,1009.43
2017-05-01T14:06:31.285Z,1009.46
2017-05-01T14:07:43.834Z,1009.45
2017-05-01T14:08:56.393Z,1009.4
2017-05-01T14:10:08.324Z,1009.49
2017-05-01T14:11:20.567Z,1009.4
2017-05-01T14:12:33.093Z,1009.42
2017-05-01T14:13:45.634Z,1009.38
2017-05-01T14:14:57.882Z,1009.53
2017-05-01T14:16:10.105Z,1009.52
2017-05-01T14:17:22.647Z,1009.45
2017-05-01T14:18:34.888Z,1009.55
2017-05-01T14:19:47.118Z,1009.62
2017-05-01T14:20:59.668Z,1009.64
2017-05-01T14:22:12.198Z,1009.58
2017-05-01T14:23:24.727Z,1009.69
2017-05-01T14:24:37.265Z,1009.63
2017-05-01T14:25:49.799Z,1009.6
2017-05-01T14:27:02.314Z,1009.56
2017-05-01T14:28:14.860Z,1009.49
2017-05-01T14:29:27.387Z,1009.47
2017-05-01T14:30:39.626Z,1009.5
2017-05-01T14:31:51.847Z,1009.52
2017-05-01T14:33:04.073Z,1009.51
2017-05-01T14:34:16.317Z,1009.54
2017-05-01T14:35:28.868Z,1009.56
2017-05-01T14:36:41.427Z,1009.53
2017-05-01T14:37:53.953Z,1009.54
2017-05-01T14:39:06.190Z,1009.64